Search METAR Data

METAR Data for FMCZ:

FMCZ 241530Z AUTO 16009KT 9999 FEW016/// ///CB 29/26 Q1010 BECMG SCT023